Time;durP1;ratioP1;P1;durP2;ratioP2;P2;SDS_P1;SDS_P2;PMS_P1;PMS_P2;Temp;Humidity;BMP_temperature;BMP_pressure;BME280_temperature;BME280_humidity;BME280_pressure;Samples;Min_cycle;Max_cycle;Signal;HPM_P1;HPM_P2
2022/10/17 00:01:48;;;;;;;30.30;13.50;;;;;;;;;;4922138;28;20189;-93
2022/10/17 00:04:14;;;;;;;28.80;10.73;;;;;;;;;;4933278;28;20036;-91
2022/10/17 00:06:40;;;;;;;26.75;10.20;;;;;;;;;;4925271;28;20155;-91
2022/10/17 00:09:06;;;;;;;22.35;8.70;;;;;;;;;;4926608;29;20035;-91
2022/10/17 00:11:32;;;;;;;23.52;8.50;;;;;;;;;;4942925;28;20054;-91
2022/10/17 00:13:58;;;;;;;19.77;7.30;;;;;;;;;;4931051;28;20398;-91
2022/10/17 00:16:29;;;;;;;24.77;7.15;;;;;;;;;;4927684;28;20129;-91
2022/10/17 00:18:55;;;;;;;26.80;6.55;;;;;;;;;;4948125;28;20026;-91
2022/10/17 00:21:21;;;;;;;32.97;6.45;;;;;;;;;;4941857;28;20035;-91
2022/10/17 00:23:47;;;;;;;16.02;5.75;;;;;;;;;;4932427;28;20030;-92
2022/10/17 00:26:14;;;;;;;18.83;5.05;;;;;;;;;;4933120;28;20583;-90
2022/10/17 00:28:40;;;;;;;20.88;6.20;;;;;;;;;;4947356;28;20505;-90
2022/10/17 00:31:06;;;;;;;16.95;4.25;;;;;;;;;;4930936;28;20153;-89
2022/10/17 00:33:33;;;;;;;16.50;5.45;;;;;;;;;;4942340;28;20037;-90
2022/10/17 00:36:11;;;;;;;15.95;4.50;;;;;;;;;;4946105;28;20077;-90
2022/10/17 00:38:45;;;;;;;15.00;4.43;;;;;;;;;;4946747;28;20037;-91
2022/10/17 00:41:12;;;;;;;11.15;4.47;;;;;;;;;;4961986;28;20082;-91
2022/10/17 00:43:56;;;;;;;20.83;5.13;;;;;;;;;;4939376;28;20035;-91
2022/10/17 00:46:23;;;;;;;16.83;5.38;;;;;;;;;;4951982;28;20888;-90
2022/10/17 00:48:50;;;;;;;11.55;4.57;;;;;;;;;;4947175;28;20066;-90
2022/10/17 00:51:17;;;;;;;11.27;3.97;;;;;;;;;;4958872;28;20039;-92
2022/10/17 00:53:43;;;;;;;18.48;4.78;;;;;;;;;;4930089;28;20026;-92
2022/10/17 00:56:16;;;;;;;11.18;4.60;;;;;;;;;;4926319;28;20085;-92
2022/10/17 00:58:42;;;;;;;14.90;4.65;;;;;;;;;;4923319;28;20038;-91
2022/10/17 01:01:08;;;;;;;10.73;3.75;;;;;;;;;;4929769;28;20047;-93
2022/10/17 01:03:34;;;;;;;17.08;4.22;;;;;;;;;;4940750;28;20053;-92
2022/10/17 01:06:00;;;;;;;13.55;4.25;;;;;;;;;;4925077;28;21848;-92
2022/10/17 01:08:26;;;;;;;11.43;4.18;;;;;;;;;;4945426;28;20043;-91
2022/10/17 01:11:05;;;;;;;8.88;3.90;;;;;;;;;;4947245;28;20445;-93
2022/10/17 01:13:45;;;;;;;14.73;4.20;;;;;;;;;;4938667;28;20063;-93
2022/10/17 01:16:11;;;;;;;14.80;4.70;;;;;;;;;;4941639;28;20039;-92
2022/10/17 01:18:44;;;;;;;11.18;4.18;;;;;;;;;;4942359;28;20055;-93
2022/10/17 01:21:10;;;;;;;13.88;4.07;;;;;;;;;;4939884;28;20032;-93
2022/10/17 01:23:54;;;;;;;15.75;4.22;;;;;;;;;;4940068;28;20030;-92
2022/10/17 01:26:38;;;;;;;13.93;5.18;;;;;;;;;;4943861;28;20615;-92
2022/10/17 01:29:10;;;;;;;14.15;4.75;;;;;;;;;;4938235;28;20070;-93
2022/10/17 01:31:39;;;;;;;9.75;4.85;;;;;;;;;;4937345;28;20031;-92
2022/10/17 01:34:14;;;;;;;16.40;5.15;;;;;;;;;;4948684;28;20163;-92
2022/10/17 01:36:47;;;;;;;9.85;4.85;;;;;;;;;;4949548;28;20087;-92
2022/10/17 01:39:19;;;;;;;13.45;5.13;;;;;;;;;;4946193;28;20043;-93
2022/10/17 01:42:05;;;;;;;14.40;4.65;;;;;;;;;;4957598;28;20046;-91
2022/10/17 01:44:46;;;;;;;17.27;4.43;;;;;;;;;;4939658;28;20651;-91
2022/10/17 01:47:14;;;;;;;12.55;4.68;;;;;;;;;;4938367;28;20042;-91
2022/10/17 01:49:41;;;;;;;15.05;4.72;;;;;;;;;;4938136;28;20032;-91
2022/10/17 01:52:15;;;;;;;10.10;4.63;;;;;;;;;;4921826;28;21851;-91
2022/10/17 01:54:46;;;;;;;11.68;5.40;;;;;;;;;;4941565;28;20036;-90
2022/10/17 01:57:19;;;;;;;18.27;5.00;;;;;;;;;;4938928;28;20043;-91
2022/10/17 01:59:47;;;;;;;15.73;4.63;;;;;;;;;;4954200;28;20032;-93
2022/10/17 02:02:14;;;;;;;10.75;5.60;;;;;;;;;;4950722;28;20499;-93
2022/10/17 02:04:41;;;;;;;11.45;5.93;;;;;;;;;;4936276;28;20511;-92
2022/10/17 02:07:09;;;;;;;16.77;5.03;;;;;;;;;;4942762;28;20043;-93
2022/10/17 02:09:35;;;;;;;11.05;4.90;;;;;;;;;;4939401;28;20114;-92
2022/10/17 02:12:14;;;;;;;14.10;5.65;;;;;;;;;;4921783;28;20035;-92
2022/10/17 02:14:40;;;;;;;15.25;5.65;;;;;;;;;;4926479;29;20644;-92
2022/10/17 02:17:18;;;;;;;14.63;6.25;;;;;;;;;;4934941;28;20126;-90
2022/10/17 02:19:57;;;;;;;17.20;6.13;;;;;;;;;;4924492;28;20446;-92
2022/10/17 02:22:46;;;;;;;16.58;7.03;;;;;;;;;;4923372;28;20035;-92
2022/10/17 02:25:21;;;;;;;16.25;6.10;;;;;;;;;;4934726;28;20517;-91
2022/10/17 02:28:13;;;;;;;16.98;7.25;;;;;;;;;;4936703;28;20035;-92
2022/10/17 02:30:51;;;;;;;16.45;9.57;;;;;;;;;;4927990;28;20038;-93
2022/10/17 02:33:25;;;;;;;15.98;7.40;;;;;;;;;;4932518;28;20067;-93
2022/10/17 02:35:54;;;;;;;19.27;7.55;;;;;;;;;;4942409;28;20027;-92
2022/10/17 02:38:21;;;;;;;21.23;8.77;;;;;;;;;;4944684;28;20028;-94
2022/10/17 02:40:48;;;;;;;20.40;8.52;;;;;;;;;;4908416;28;20490;-91
2022/10/17 02:43:14;;;;;;;15.68;7.78;;;;;;;;;;4929384;28;20027;-91
2022/10/17 02:45:41;;;;;;;18.70;8.52;;;;;;;;;;4942652;28;20034;-93
2022/10/17 02:48:16;;;;;;;17.75;7.75;;;;;;;;;;4928484;28;20039;-93
2022/10/17 02:50:42;;;;;;;13.25;8.02;;;;;;;;;;4943241;28;20034;-93
2022/10/17 02:53:12;;;;;;;15.43;6.70;;;;;;;;;;4934991;28;20031;-94
2022/10/17 02:55:40;;;;;;;16.70;7.28;;;;;;;;;;4941874;28;20026;-93
2022/10/17 02:58:08;;;;;;;18.35;7.60;;;;;;;;;;4933649;28;20027;-93
2022/10/17 03:00:34;;;;;;;16.85;7.80;;;;;;;;;;4926830;28;20490;-93
2022/10/17 03:03:00;;;;;;;13.18;7.00;;;;;;;;;;4928441;28;20031;-92
2022/10/17 03:05:27;;;;;;;14.82;7.90;;;;;;;;;;4926716;28;20043;-93
2022/10/17 03:07:54;;;;;;;14.55;8.23;;;;;;;;;;4928785;28;20364;-93
2022/10/17 03:10:20;;;;;;;14.18;8.23;;;;;;;;;;4939375;28;20492;-93
2022/10/17 03:12:46;;;;;;;17.05;8.13;;;;;;;;;;4908517;28;20203;-93
2022/10/17 03:15:12;;;;;;;20.42;8.88;;;;;;;;;;4936991;28;20488;-93
2022/10/17 03:17:39;;;;;;;15.95;8.32;;;;;;;;;;4950310;28;20054;-93
2022/10/17 03:20:06;;;;;;;18.40;9.70;;;;;;;;;;4943997;28;20039;-93
2022/10/17 03:22:32;;;;;;;15.43;8.35;;;;;;;;;;4942615;28;20124;-93
2022/10/17 03:24:58;;;;;;;17.65;8.73;;;;;;;;;;4926324;28;20042;-93
2022/10/17 03:27:24;;;;;;;17.85;8.15;;;;;;;;;;4929155;29;20147;-92
2022/10/17 03:29:50;;;;;;;17.75;8.95;;;;;;;;;;4928696;28;20061;-93
2022/10/17 03:32:16;;;;;;;15.75;8.75;;;;;;;;;;4926095;28;20527;-93
2022/10/17 03:34:42;;;;;;;13.50;8.18;;;;;;;;;;4942350;28;20534;-91
2022/10/17 03:37:08;;;;;;;23.65;8.70;;;;;;;;;;4930250;28;20047;-91
2022/10/17 03:39:34;;;;;;;25.17;9.15;;;;;;;;;;4918354;28;20523;-93
2022/10/17 03:42:00;;;;;;;12.93;8.90;;;;;;;;;;4926371;28;20129;-92
2022/10/17 03:44:26;;;;;;;12.63;8.27;;;;;;;;;;4947937;28;20019;-92
2022/10/17 03:46:52;;;;;;;18.45;8.45;;;;;;;;;;4940402;28;20038;-92
2022/10/17 03:49:18;;;;;;;15.80;7.53;;;;;;;;;;4928204;29;20036;-92
2022/10/17 03:51:44;;;;;;;15.30;8.15;;;;;;;;;;4924811;28;20042;-92
2022/10/17 03:54:10;;;;;;;14.07;6.90;;;;;;;;;;4924887;28;20130;-91
2022/10/17 03:56:36;;;;;;;9.43;6.55;;;;;;;;;;4930137;28;20160;-91
2022/10/17 03:59:02;;;;;;;15.10;6.68;;;;;;;;;;4922065;29;20046;-93
2022/10/17 04:01:28;;;;;;;11.85;6.65;;;;;;;;;;4953554;28;20038;-93
2022/10/17 04:03:55;;;;;;;17.67;7.43;;;;;;;;;;4926679;28;20046;-93
2022/10/17 04:06:22;;;;;;;10.45;6.82;;;;;;;;;;4950403;28;20476;-93
2022/10/17 04:08:48;;;;;;;11.73;6.22;;;;;;;;;;4941675;28;20042;-93
2022/10/17 04:11:16;;;;;;;12.90;6.95;;;;;;;;;;4950598;28;20045;-93
2022/10/17 04:13:42;;;;;;;10.63;7.40;;;;;;;;;;4945128;28;20062;-92
2022/10/17 04:16:10;;;;;;;17.15;8.10;;;;;;;;;;4921459;28;20608;-92
2022/10/17 04:18:36;;;;;;;17.58;7.72;;;;;;;;;;4954344;28;20391;-93
2022/10/17 04:21:03;;;;;;;14.13;7.47;;;;;;;;;;4943066;28;20139;-93
2022/10/17 04:23:29;;;;;;;11.82;7.68;;;;;;;;;;4924904;28;20130;-93
2022/10/17 04:25:59;;;;;;;16.13;7.30;;;;;;;;;;4926224;29;20107;-93
2022/10/17 04:28:25;;;;;;;15.73;7.35;;;;;;;;;;4954919;28;20027;-93
2022/10/17 04:30:58;;;;;;;15.02;7.47;;;;;;;;;;4935986;28;20130;-93
2022/10/17 04:33:24;;;;;;;16.50;7.85;;;;;;;;;;4956298;28;20542;-93
2022/10/17 04:36:04;;;;;;;15.93;7.18;;;;;;;;;;4943261;28;20475;-92
2022/10/17 04:38:30;;;;;;;14.38;7.50;;;;;;;;;;4924415;28;20525;-92
2022/10/17 04:41:02;;;;;;;10.77;6.53;;;;;;;;;;4928164;29;20047;-92
2022/10/17 04:43:28;;;;;;;18.20;8.57;;;;;;;;;;4927764;28;20062;-93
2022/10/17 04:45:54;;;;;;;11.68;7.85;;;;;;;;;;4951264;28;20035;-93
2022/10/17 04:48:20;;;;;;;13.98;7.85;;;;;;;;;;4929555;29;20046;-93
2022/10/17 04:51:06;;;;;;;15.65;8.32;;;;;;;;;;4948317;28;20133;-92
2022/10/17 04:53:32;;;;;;;14.32;8.23;;;;;;;;;;4955020;28;20513;-92
2022/10/17 04:55:58;;;;;;;13.23;6.75;;;;;;;;;;4940617;28;20387;-92
2022/10/17 04:58:24;;;;;;;27.23;8.88;;;;;;;;;;4919662;28;20032;-92
2022/10/17 05:00:50;;;;;;;14.88;7.03;;;;;;;;;;4916942;28;20537;-92
2022/10/17 05:03:16;;;;;;;12.65;7.40;;;;;;;;;;4916706;29;20162;-93
2022/10/17 05:05:43;;;;;;;14.38;8.70;;;;;;;;;;4942246;28;20491;-92
2022/10/17 05:08:09;;;;;;;17.05;8.85;;;;;;;;;;4934934;28;20069;-93
2022/10/17 05:10:37;;;;;;;13.48;8.57;;;;;;;;;;4940354;28;20110;-93
2022/10/17 05:13:03;;;;;;;16.75;8.77;;;;;;;;;;4935328;28;20035;-93
2022/10/17 05:15:29;;;;;;;17.67;8.75;;;;;;;;;;4939466;28;20490;-93
2022/10/17 05:17:58;;;;;;;23.60;9.80;;;;;;;;;;4922700;28;20122;-95
2022/10/17 05:20:24;;;;;;;17.17;9.63;;;;;;;;;;4956163;28;20039;-90
2022/10/17 05:22:52;;;;;;;16.58;9.85;;;;;;;;;;4941068;28;20553;-92
2022/10/17 05:25:18;;;;;;;16.63;9.30;;;;;;;;;;4922303;28;20090;-91
2022/10/17 05:27:44;;;;;;;15.85;9.93;;;;;;;;;;4922330;28;20133;-90
2022/10/17 05:30:10;;;;;;;18.13;9.98;;;;;;;;;;4926336;28;20162;-92
2022/10/17 05:32:36;;;;;;;19.10;9.40;;;;;;;;;;4953960;28;20047;-93
2022/10/17 05:35:10;;;;;;;16.80;8.57;;;;;;;;;;4943549;28;20028;-95
2022/10/17 05:37:36;;;;;;;19.40;10.57;;;;;;;;;;4937446;28;20039;-93
2022/10/17 05:40:05;;;;;;;17.08;9.52;;;;;;;;;;4948200;28;20027;-93
2022/10/17 05:42:31;;;;;;;20.85;10.35;;;;;;;;;;4939517;28;20035;-93
2022/10/17 05:44:57;;;;;;;18.90;10.57;;;;;;;;;;4954076;28;20049;-92
2022/10/17 05:47:23;;;;;;;17.83;10.18;;;;;;;;;;4942427;28;20054;-91
2022/10/17 05:49:49;;;;;;;19.95;10.57;;;;;;;;;;4933688;28;20488;-91
2022/10/17 05:52:16;;;;;;;22.38;11.85;;;;;;;;;;4918436;28;20042;-91
2022/10/17 05:54:42;;;;;;;18.10;10.65;;;;;;;;;;4936690;28;20032;-91
2022/10/17 05:57:08;;;;;;;19.42;10.85;;;;;;;;;;4936982;28;20133;-92
2022/10/17 05:59:34;;;;;;;17.70;10.00;;;;;;;;;;4924431;28;20476;-91
2022/10/17 06:02:00;;;;;;;19.98;10.40;;;;;;;;;;4929531;28;20050;-90
2022/10/17 06:04:26;;;;;;;31.13;10.88;;;;;;;;;;4926161;28;20031;-90
2022/10/17 06:06:53;;;;;;;21.08;9.75;;;;;;;;;;4926483;29;20043;-91
2022/10/17 06:09:19;;;;;;;23.25;11.02;;;;;;;;;;4928095;28;20440;-91
2022/10/17 06:11:45;;;;;;;25.15;11.38;;;;;;;;;;4927311;28;20035;-91
2022/10/17 06:14:11;;;;;;;18.00;10.90;;;;;;;;;;4929540;28;20050;-91
2022/10/17 06:16:37;;;;;;;18.90;11.02;;;;;;;;;;4925618;28;20089;-91
2022/10/17 06:19:03;;;;;;;25.35;11.40;;;;;;;;;;4929233;28;20044;-92
2022/10/17 06:21:29;;;;;;;20.45;11.13;;;;;;;;;;4929302;28;20062;-92
2022/10/17 06:23:55;;;;;;;17.95;10.13;;;;;;;;;;4926586;29;20110;-92
2022/10/17 06:26:21;;;;;;;18.83;10.65;;;;;;;;;;4927546;28;20388;-91
2022/10/17 06:28:47;;;;;;;17.98;10.93;;;;;;;;;;4932220;29;20135;-91
2022/10/17 06:31:15;;;;;;;18.40;10.35;;;;;;;;;;4927935;28;20035;-91
2022/10/17 06:33:41;;;;;;;22.58;10.93;;;;;;;;;;4958606;28;20503;-92
2022/10/17 06:36:09;;;;;;;19.95;9.68;;;;;;;;;;4930612;29;20098;-91
2022/10/17 06:38:35;;;;;;;14.57;8.52;;;;;;;;;;4947345;28;20042;-91
2022/10/17 06:41:03;;;;;;;14.40;8.90;;;;;;;;;;4945837;28;20090;-91
2022/10/17 06:43:29;;;;;;;38.92;10.65;;;;;;;;;;4942351;28;20054;-91
2022/10/17 06:46:02;;;;;;;14.68;9.52;;;;;;;;;;4930404;29;20023;-91
2022/10/17 06:48:28;;;;;;;18.70;10.35;;;;;;;;;;4925159;29;20368;-91
2022/10/17 06:50:58;;;;;;;17.02;10.50;;;;;;;;;;4932170;28;20603;-91
2022/10/17 06:53:27;;;;;;;33.03;12.68;;;;;;;;;;4958951;28;20035;-91
2022/10/17 06:55:54;;;;;;;24.70;10.65;;;;;;;;;;4938391;28;20031;-91
2022/10/17 06:58:21;;;;;;;29.70;12.98;;;;;;;;;;4944355;28;20033;-91
2022/10/17 07:00:47;;;;;;;17.15;10.18;;;;;;;;;;4921960;28;20031;-91
2022/10/17 07:03:13;;;;;;;24.20;11.25;;;;;;;;;;4942799;28;20043;-91
2022/10/17 07:05:39;;;;;;;36.67;13.13;;;;;;;;;;4923450;29;20040;-91
2022/10/17 07:08:05;;;;;;;18.17;10.55;;;;;;;;;;4930947;28;20054;-91
2022/10/17 07:10:38;;;;;;;22.65;10.57;;;;;;;;;;4941041;28;20063;-91
2022/10/17 07:13:04;;;;;;;18.02;10.05;;;;;;;;;;4924338;28;20086;-91
2022/10/17 07:15:31;;;;;;;29.40;11.57;;;;;;;;;;4930271;28;20146;-91
2022/10/17 07:17:57;;;;;;;19.02;11.30;;;;;;;;;;4946367;28;20027;-91
2022/10/17 07:20:23;;;;;;;21.73;11.38;;;;;;;;;;4943799;28;20519;-91
2022/10/17 07:22:49;;;;;;;20.27;10.93;;;;;;;;;;4944160;28;20039;-91
2022/10/17 07:25:15;;;;;;;16.95;10.52;;;;;;;;;;4945048;28;20027;-91
2022/10/17 07:27:41;;;;;;;20.25;10.88;;;;;;;;;;4947486;28;20130;-91
2022/10/17 07:30:08;;;;;;;19.83;9.60;;;;;;;;;;4947508;28;20635;-91
2022/10/17 07:32:34;;;;;;;20.35;10.02;;;;;;;;;;4931511;28;20062;-91
2022/10/17 07:35:00;;;;;;;19.85;10.68;;;;;;;;;;4944931;28;20042;-91
2022/10/17 07:37:26;;;;;;;16.15;10.05;;;;;;;;;;4947173;28;20035;-91
2022/10/17 07:39:52;;;;;;;28.48;10.52;;;;;;;;;;4947525;28;20047;-91
2022/10/17 07:42:18;;;;;;;20.55;9.60;;;;;;;;;;4944567;28;20122;-91
2022/10/17 07:44:46;;;;;;;13.50;8.95;;;;;;;;;;4931060;28;20046;-91
2022/10/17 07:47:12;;;;;;;15.35;9.07;;;;;;;;;;4946885;28;20113;-91
2022/10/17 07:49:41;;;;;;;15.45;8.77;;;;;;;;;;4934211;28;20035;-91
2022/10/17 07:52:09;;;;;;;14.50;8.63;;;;;;;;;;4934136;28;20043;-91
2022/10/17 07:54:35;;;;;;;16.60;8.95;;;;;;;;;;4946516;28;20031;-91
2022/10/17 07:57:01;;;;;;;16.15;8.77;;;;;;;;;;4946864;28;20391;-91
2022/10/17 07:59:27;;;;;;;17.23;8.35;;;;;;;;;;4946213;28;20562;-91
2022/10/17 08:01:56;;;;;;;11.70;8.40;;;;;;;;;;4933085;28;20081;-91
2022/10/17 08:04:22;;;;;;;14.45;8.50;;;;;;;;;;4945522;28;20098;-92
2022/10/17 08:06:49;;;;;;;14.70;8.23;;;;;;;;;;4928616;28;20057;-91
2022/10/17 08:09:15;;;;;;;13.45;7.10;;;;;;;;;;4958854;28;20486;-91
2022/10/17 08:11:42;;;;;;;11.02;6.22;;;;;;;;;;4937944;28;21301;-92
2022/10/17 08:14:15;;;;;;;11.98;6.60;;;;;;;;;;4949226;28;20058;-92
2022/10/17 08:16:41;;;;;;;18.45;6.75;;;;;;;;;;4944248;28;20031;-92
2022/10/17 08:19:11;;;;;;;12.52;6.93;;;;;;;;;;4924377;28;20067;-92
2022/10/17 08:21:38;;;;;;;18.27;7.28;;;;;;;;;;4939644;28;20051;-91
2022/10/17 08:24:04;;;;;;;15.82;7.43;;;;;;;;;;4939566;28;20047;-92
2022/10/17 08:26:30;;;;;;;21.50;7.68;;;;;;;;;;4957924;28;21777;-92
2022/10/17 08:28:56;;;;;;;11.27;6.68;;;;;;;;;;4927127;29;20089;-92
2022/10/17 08:31:22;;;;;;;19.50;6.88;;;;;;;;;;4918018;28;20440;-92
2022/10/17 08:33:49;;;;;;;11.73;6.07;;;;;;;;;;4956865;28;20418;-92
2022/10/17 08:36:16;;;;;;;13.35;6.93;;;;;;;;;;4925752;28;20073;-92
2022/10/17 08:38:43;;;;;;;16.08;7.45;;;;;;;;;;4934827;28;20039;-93
2022/10/17 08:41:25;;;;;;;9.98;6.55;;;;;;;;;;4940830;28;20024;-93
2022/10/17 08:43:56;;;;;;;17.13;7.68;;;;;;;;;;4950454;28;20345;-93
2022/10/17 08:46:22;;;;;;;14.50;7.10;;;;;;;;;;4936482;28;20427;-93
2022/10/17 08:48:49;;;;;;;10.55;6.63;;;;;;;;;;4944066;28;20495;-92
2022/10/17 08:51:18;;;;;;;10.18;6.70;;;;;;;;;;4925783;29;20042;-91
2022/10/17 08:54:10;;;;;;;10.95;6.22;;;;;;;;;;4940901;28;20094;-91
2022/10/17 08:56:39;;;;;;;12.15;6.80;;;;;;;;;;4940475;28;20038;-91
2022/10/17 08:59:10;;;;;;;17.08;7.53;;;;;;;;;;4937443;28;20059;-91
2022/10/17 09:01:49;;;;;;;9.45;6.32;;;;;;;;;;4935281;28;20039;-91
2022/10/17 09:04:34;;;;;;;8.70;6.15;;;;;;;;;;4944637;28;20034;-92
2022/10/17 09:07:14;;;;;;;12.50;5.28;;;;;;;;;;4933238;28;20391;-92
2022/10/17 09:10:03;;;;;;;21.98;7.57;;;;;;;;;;4955953;28;20073;-91
2022/10/17 09:12:40;;;;;;;11.38;6.68;;;;;;;;;;4942264;28;20142;-92
2022/10/17 09:15:24;;;;;;;10.77;7.45;;;;;;;;;;4944240;28;20894;-92
2022/10/17 09:17:54;;;;;;;17.85;7.68;;;;;;;;;;4956330;28;20047;-91
2022/10/17 09:20:21;;;;;;;14.82;6.53;;;;;;;;;;4937551;28;20094;-91
2022/10/17 09:22:50;;;;;;;11.20;7.25;;;;;;;;;;4953556;28;20065;-91
2022/10/17 09:25:18;;;;;;;14.57;6.97;;;;;;;;;;4937880;28;20039;-91
2022/10/17 09:27:46;;;;;;;12.50;6.28;;;;;;;;;;4936624;28;20039;-91
2022/10/17 09:30:15;;;;;;;20.00;7.38;;;;;;;;;;4939637;28;20039;-90
2022/10/17 09:32:41;;;;;;;10.13;5.38;;;;;;;;;;4953174;28;20517;-90
2022/10/17 09:35:12;;;;;;;11.45;6.18;;;;;;;;;;4917338;28;20035;-92
2022/10/17 09:37:39;;;;;;;17.60;8.63;;;;;;;;;;4946081;28;20031;-92
2022/10/17 09:40:06;;;;;;;5.72;3.88;;;;;;;;;;4916625;28;20090;-92
2022/10/17 09:42:34;;;;;;;15.32;6.45;;;;;;;;;;4947842;28;20035;-91
2022/10/17 09:45:00;;;;;;;15.50;6.93;;;;;;;;;;4955810;28;20038;-91
2022/10/17 09:47:29;;;;;;;15.43;6.88;;;;;;;;;;4936104;28;20028;-92
2022/10/17 09:49:55;;;;;;;16.50;6.35;;;;;;;;;;4939009;28;20557;-91
2022/10/17 09:52:27;;;;;;;9.50;6.82;;;;;;;;;;4935795;28;20487;-92
2022/10/17 09:54:57;;;;;;;8.20;6.13;;;;;;;;;;4951372;28;20553;-91
2022/10/17 09:57:24;;;;;;;17.17;7.13;;;;;;;;;;4933265;28;20042;-92
2022/10/17 09:59:58;;;;;;;14.25;7.32;;;;;;;;;;4936928;28;20065;-92
2022/10/17 10:02:25;;;;;;;17.50;8.10;;;;;;;;;;4948328;28;20044;-92
2022/10/17 10:05:01;;;;;;;14.02;6.78;;;;;;;;;;4937248;28;20071;-92
2022/10/17 10:07:29;;;;;;;13.68;7.28;;;;;;;;;;4935763;28;20553;-92
2022/10/17 10:09:55;;;;;;;15.05;8.27;;;;;;;;;;4937960;28;20551;-92
2022/10/17 10:12:26;;;;;;;19.88;9.15;;;;;;;;;;4956751;28;20046;-93
2022/10/17 10:14:59;;;;;;;21.05;8.90;;;;;;;;;;4937314;28;20046;-93
2022/10/17 10:17:25;;;;;;;20.63;9.00;;;;;;;;;;4937000;28;20448;-93
2022/10/17 10:19:52;;;;;;;23.92;9.63;;;;;;;;;;4939125;28;20071;-93
2022/10/17 10:22:19;;;;;;;9.95;4.68;;;;;;;;;;4925271;28;20059;-92
2022/10/17 10:24:48;;;;;;;18.98;9.25;;;;;;;;;;4920882;29;20087;-93
2022/10/17 10:27:16;;;;;;;15.95;9.23;;;;;;;;;;4916889;28;20510;-93
2022/10/17 10:29:51;;;;;;;20.90;8.95;;;;;;;;;;4955960;28;20050;-94
2022/10/17 10:32:28;;;;;;;20.75;9.52;;;;;;;;;;4935913;28;20097;-92
2022/10/17 10:34:54;;;;;;;17.35;10.02;;;;;;;;;;4956719;28;20028;-93
2022/10/17 10:37:41;;;;;;;18.08;11.20;;;;;;;;;;4936017;28;20048;-93
2022/10/17 10:40:17;;;;;;;16.48;9.20;;;;;;;;;;4938662;28;20502;-94
2022/10/17 10:42:46;;;;;;;21.40;10.77;;;;;;;;;;4939851;28;20150;-93
2022/10/17 10:45:20;;;;;;;20.15;10.02;;;;;;;;;;4936161;28;20113;-93
2022/10/17 10:47:51;;;;;;;22.05;11.30;;;;;;;;;;4935159;28;20031;-93
2022/10/17 10:50:26;;;;;;;22.60;10.20;;;;;;;;;;4937350;28;20094;-93
2022/10/17 10:53:11;;;;;;;17.42;10.10;;;;;;;;;;4937184;28;20464;-93
2022/10/17 10:55:45;;;;;;;19.63;9.68;;;;;;;;;;4942422;28;20435;-93
2022/10/17 10:58:17;;;;;;;17.70;9.52;;;;;;;;;;4954168;28;20090;-93
2022/10/17 11:00:44;;;;;;;17.05;9.35;;;;;;;;;;4953838;28;20483;-93
2022/10/17 11:03:21;;;;;;;26.40;11.20;;;;;;;;;;4923629;28;20074;-93
2022/10/17 11:06:00;;;;;;;17.63;10.48;;;;;;;;;;4954275;28;20035;-95
2022/10/17 11:08:29;;;;;;;18.70;10.13;;;;;;;;;;4939078;28;20126;-94
2022/10/17 11:11:17;;;;;;;18.10;9.77;;;;;;;;;;4938456;28;20476;-91
2022/10/17 11:14:07;;;;;;;18.98;10.20;;;;;;;;;;4953184;28;20036;-91
2022/10/17 11:16:36;;;;;;;19.95;10.75;;;;;;;;;;4938265;28;20369;-93
2022/10/17 11:19:22;;;;;;;18.30;10.23;;;;;;;;;;4941670;28;20035;-91
2022/10/17 11:21:52;;;;;;;16.42;9.73;;;;;;;;;;4928626;28;20043;-91
2022/10/17 11:24:23;;;;;;;27.02;11.50;;;;;;;;;;4936776;28;20048;-91
2022/10/17 11:27:00;;;;;;;20.38;9.93;;;;;;;;;;4940576;28;20779;-91
2022/10/17 11:29:37;;;;;;;22.42;10.80;;;;;;;;;;4950180;28;20089;-91
2022/10/17 11:32:24;;;;;;;20.15;10.52;;;;;;;;;;4930918;28;20609;-91
2022/10/17 11:34:54;;;;;;;23.15;10.80;;;;;;;;;;4923685;28;20067;-92
2022/10/17 11:37:22;;;;;;;20.17;10.52;;;;;;;;;;4933714;28;20332;-92
2022/10/17 11:39:57;;;;;;;26.27;11.07;;;;;;;;;;4936497;28;20046;-92
2022/10/17 11:42:37;;;;;;;19.67;9.55;;;;;;;;;;4935160;28;20042;-92
2022/10/17 11:45:15;;;;;;;21.98;10.10;;;;;;;;;;4937202;28;20039;-92
2022/10/17 11:47:46;;;;;;;23.98;11.32;;;;;;;;;;4934516;28;20472;-92
2022/10/17 11:50:18;;;;;;;18.25;8.38;;;;;;;;;;4936414;28;20035;-91
2022/10/17 11:52:55;;;;;;;18.38;9.57;;;;;;;;;;4955765;28;20468;-92
2022/10/17 11:55:23;;;;;;;21.95;8.93;;;;;;;;;;4935763;28;20392;-92
2022/10/17 11:57:56;;;;;;;17.92;7.97;;;;;;;;;;4931896;28;20513;-92
2022/10/17 12:00:41;;;;;;;11.77;5.18;;;;;;;;;;4942857;28;20174;-92
2022/10/17 12:03:19;;;;;;;8.40;6.00;;;;;;;;;;4952378;28;20039;-92
2022/10/17 12:05:48;;;;;;;13.05;6.65;;;;;;;;;;4947312;28;20019;-92
2022/10/17 12:08:25;;;;;;;15.10;7.13;;;;;;;;;;4937535;28;20046;-92
2022/10/17 12:11:00;;;;;;;18.25;6.88;;;;;;;;;;4935651;28;20054;-92
2022/10/17 12:13:34;;;;;;;24.88;7.78;;;;;;;;;;4940997;28;20081;-92
2022/10/17 12:16:18;;;;;;;13.88;7.97;;;;;;;;;;4931255;28;20043;-92
2022/10/17 12:18:50;;;;;;;17.10;7.10;;;;;;;;;;4936509;28;20031;-92
2022/10/17 12:21:16;;;;;;;13.32;6.25;;;;;;;;;;4938684;28;20380;-92
2022/10/17 12:23:51;;;;;;;8.93;5.22;;;;;;;;;;4937143;28;20406;-92
2022/10/17 12:26:25;;;;;;;14.23;6.95;;;;;;;;;;4951320;28;20035;-92
2022/10/17 12:28:51;;;;;;;12.00;6.85;;;;;;;;;;4952070;28;20365;-92
2022/10/17 12:31:21;;;;;;;7.43;4.72;;;;;;;;;;4916896;28;20035;-92
2022/10/17 12:33:47;;;;;;;14.50;7.28;;;;;;;;;;4929167;28;20122;-93
2022/10/17 12:36:17;;;;;;;11.85;7.53;;;;;;;;;;4937244;28;20049;-92
2022/10/17 12:38:48;;;;;;;11.95;6.93;;;;;;;;;;4937064;28;20061;-93
2022/10/17 12:41:14;;;;;;;12.48;6.93;;;;;;;;;;4941710;28;20024;-92
2022/10/17 12:43:51;;;;;;;16.75;5.80;;;;;;;;;;4937586;28;20035;-92
2022/10/17 12:46:35;;;;;;;15.75;8.25;;;;;;;;;;4945788;28;20062;-93
2022/10/17 12:49:03;;;;;;;13.43;6.15;;;;;;;;;;4939840;28;20034;-92
2022/10/17 12:51:49;;;;;;;16.38;7.53;;;;;;;;;;4929745;28;20040;-92
2022/10/17 12:54:16;;;;;;;11.00;6.40;;;;;;;;;;4935215;28;20036;-92
2022/10/17 12:56:44;;;;;;;10.15;6.80;;;;;;;;;;4944326;28;20019;-92
2022/10/17 12:59:19;;;;;;;13.77;6.85;;;;;;;;;;4941362;28;20272;-92
2022/10/17 13:01:47;;;;;;;12.85;6.43;;;;;;;;;;4936326;28;20030;-92
2022/10/17 13:04:15;;;;;;;12.15;5.68;;;;;;;;;;4937010;28;20150;-91
2022/10/17 13:06:49;;;;;;;14.43;5.90;;;;;;;;;;4914707;28;20043;-91
2022/10/17 13:09:22;;;;;;;9.50;5.57;;;;;;;;;;4953259;28;20043;-92
2022/10/17 13:11:49;;;;;;;16.75;5.28;;;;;;;;;;4945299;28;20074;-91
2022/10/17 13:14:16;;;;;;;10.05;5.63;;;;;;;;;;4938967;28;20023;-91
2022/10/17 13:17:06;;;;;;;10.27;4.82;;;;;;;;;;4937424;28;20399;-92
2022/10/17 13:19:39;;;;;;;13.80;5.25;;;;;;;;;;4944730;28;20039;-91
2022/10/17 13:22:15;;;;;;;8.77;5.22;;;;;;;;;;4943945;28;20034;-91
2022/10/17 13:24:41;;;;;;;10.63;5.33;;;;;;;;;;4941992;28;20058;-91
2022/10/17 13:27:23;;;;;;;11.77;5.45;;;;;;;;;;4951331;28;20291;-91
2022/10/17 13:29:49;;;;;;;8.90;5.07;;;;;;;;;;4940223;28;21037;-91
2022/10/17 13:32:15;;;;;;;13.00;4.85;;;;;;;;;;4944911;28;20408;-91
2022/10/17 13:34:41;;;;;;;5.95;3.80;;;;;;;;;;4948405;28;20078;-91
2022/10/17 13:37:10;;;;;;;7.00;4.60;;;;;;;;;;4938942;28;20470;-91
2022/10/17 13:39:44;;;;;;;8.75;4.88;;;;;;;;;;4937152;28;20020;-90
2022/10/17 13:42:25;;;;;;;6.97;4.85;;;;;;;;;;4942537;28;20110;-91
2022/10/17 13:44:51;;;;;;;14.50;5.60;;;;;;;;;;4944025;28;20055;-92
2022/10/17 13:47:26;;;;;;;10.00;4.35;;;;;;;;;;4940699;28;20229;-91
2022/10/17 13:49:53;;;;;;;9.10;3.80;;;;;;;;;;4956484;28;20023;-92
2022/10/17 13:52:21;;;;;;;9.50;5.30;;;;;;;;;;4934469;28;20046;-92
2022/10/17 13:54:52;;;;;;;7.13;4.28;;;;;;;;;;4937727;28;20055;-92
2022/10/17 13:57:29;;;;;;;7.68;3.55;;;;;;;;;;4934654;28;20046;-91
2022/10/17 13:59:59;;;;;;;9.73;3.95;;;;;;;;;;4938366;28;20083;-91
2022/10/17 14:02:26;;;;;;;8.38;3.92;;;;;;;;;;4938647;28;20495;-92
2022/10/17 14:05:07;;;;;;;9.15;3.85;;;;;;;;;;4957731;28;20538;-92
2022/10/17 14:07:40;;;;;;;15.15;4.22;;;;;;;;;;4950035;28;20035;-92
2022/10/17 14:10:14;;;;;;;9.50;2.85;;;;;;;;;;4939354;28;20415;-92
2022/10/17 14:12:42;;;;;;;15.20;3.88;;;;;;;;;;4934283;28;20420;-92
2022/10/17 14:15:12;;;;;;;7.45;3.60;;;;;;;;;;4945305;28;20457;-92
2022/10/17 14:17:39;;;;;;;8.70;3.85;;;;;;;;;;4955995;28;20127;-92
2022/10/17 14:20:06;;;;;;;5.55;3.10;;;;;;;;;;4932293;28;20031;-92
2022/10/17 14:22:36;;;;;;;7.70;3.25;;;;;;;;;;4924778;28;20038;-92
2022/10/17 14:25:03;;;;;;;10.02;3.40;;;;;;;;;;4948196;28;20027;-92
2022/10/17 14:27:34;;;;;;;9.63;3.38;;;;;;;;;;4947351;28;20035;-92
2022/10/17 14:30:02;;;;;;;6.00;2.88;;;;;;;;;;4940794;28;20617;-92
2022/10/17 14:32:33;;;;;;;11.50;3.10;;;;;;;;;;4939779;28;20032;-92
2022/10/17 14:35:01;;;;;;;7.68;3.33;;;;;;;;;;4944879;28;20031;-92
2022/10/17 14:37:47;;;;;;;7.95;3.25;;;;;;;;;;4929827;28;20023;-92
2022/10/17 14:40:16;;;;;;;7.80;3.17;;;;;;;;;;4939197;28;20040;-92
2022/10/17 14:42:43;;;;;;;8.57;3.15;;;;;;;;;;4939032;28;20039;-92
2022/10/17 14:45:13;;;;;;;5.35;3.30;;;;;;;;;;4921237;28;20040;-92